Time;durP1;ratioP1;P1;durP2;ratioP2;P2;SDS_P1;SDS_P2;PMS_P1;PMS_P2;Temp;Humidity;BMP_temperature;BMP_pressure;BME280_temperature;BME280_humidity;BME280_pressure;Samples;Min_cycle;Max_cycle;Signal;HPM_P1;HPM_P2
2022/02/08 00:01:30;;;;;;;12.20;5.25;;;22.50;36.50;;;;;;6216180;28;81710;-62
2022/02/08 00:04:31;;;;;;;9.25;5.22;;;22.50;36.50;;;;;;6232403;27;80659;-62
2022/02/08 00:07:33;;;;;;;12.07;5.30;;;22.50;36.50;;;;;;6231355;27;80308;-62
2022/02/08 00:10:33;;;;;;;16.77;5.55;;;22.50;36.60;;;;;;6232329;27;82957;-62
2022/02/08 00:13:34;;;;;;;12.30;4.60;;;22.50;36.80;;;;;;6222711;28;80575;-62
2022/02/08 00:16:34;;;;;;;17.27;6.25;;;22.50;36.60;;;;;;6226994;27;80820;-62
2022/02/08 00:19:35;;;;;;;12.68;5.32;;;22.50;36.50;;;;;;6222980;28;81207;-62
2022/02/08 00:22:36;;;;;;;12.90;5.75;;;22.50;36.60;;;;;;6212431;28;80785;-62
2022/02/08 00:25:36;;;;;;;15.80;5.20;;;22.50;36.60;;;;;;6232496;27;80369;-62
2022/02/08 00:28:37;;;;;;;14.75;6.00;;;22.50;36.50;;;;;;6220812;28;80463;-63
2022/02/08 00:31:37;;;;;;;13.95;5.82;;;22.40;36.50;;;;;;6195638;28;80617;-62
2022/02/08 00:34:38;;;;;;;13.00;5.78;;;22.40;36.40;;;;;;6218593;28;81533;-62
2022/02/08 00:37:39;;;;;;;10.32;5.25;;;22.40;36.40;;;;;;6230076;28;82899;-62
2022/02/08 00:40:39;;;;;;;12.05;4.82;;;22.40;36.40;;;;;;6231715;27;80138;-62
2022/02/08 00:43:51;;;;;;;12.63;5.57;;;22.40;36.50;;;;;;6220349;27;80726;-62
2022/02/08 00:47:10;;;;;;;12.43;5.40;;;22.40;36.50;;;;;;6212757;27;82244;-62
2022/02/08 00:50:11;;;;;;;10.90;4.85;;;22.40;36.50;;;;;;6202026;28;81549;-62
2022/02/08 00:53:12;;;;;;;12.50;5.00;;;22.40;36.50;;;;;;6220823;28;81826;-61
2022/02/08 00:56:12;;;;;;;16.02;5.72;;;22.40;36.60;;;;;;6230149;28;80666;-62
2022/02/08 00:59:13;;;;;;;15.18;5.60;;;22.40;36.50;;;;;;6221795;28;81422;-62
2022/02/08 01:02:13;;;;;;;12.45;5.63;;;22.30;36.60;;;;;;6232031;27;80279;-62
2022/02/08 01:05:15;;;;;;;11.63;5.10;;;22.40;36.70;;;;;;6232546;28;82635;-62
2022/02/08 01:08:19;;;;;;;13.98;5.45;;;22.30;36.60;;;;;;6224945;28;82233;-62
2022/02/08 01:11:21;;;;;;;12.27;4.43;;;22.40;36.70;;;;;;6246960;27;81523;-62
2022/02/08 01:14:25;;;;;;;11.63;4.90;;;22.30;36.70;;;;;;6229453;28;81548;-61
2022/02/08 01:17:25;;;;;;;11.13;5.30;;;22.30;36.60;;;;;;6217814;27;80146;-62
2022/02/08 01:20:35;;;;;;;12.93;5.25;;;22.30;36.60;;;;;;6222533;27;81505;-62
2022/02/08 01:23:35;;;;;;;11.18;4.75;;;22.30;36.50;;;;;;6221284;28;82094;-62
2022/02/08 01:26:45;;;;;;;13.43;4.93;;;22.40;36.70;;;;;;6221882;28;82298;-63
2022/02/08 01:39:43;;;;;;;9.27;4.50;;;22.30;36.60;;;;;;6223715;28;87638;-63
2022/02/08 01:46:06;;;;;;;14.13;5.15;;;22.30;36.60;;;;;;6229453;27;82572;-63
2022/02/08 01:52:13;;;;;;;9.00;4.35;;;22.30;36.60;;;;;;6229387;28;81355;-62
2022/02/08 01:55:14;;;;;;;9.95;4.63;;;22.40;36.60;;;;;;6205448;28;82171;-62
2022/02/08 01:58:14;;;;;;;12.18;4.32;;;22.30;36.60;;;;;;6196928;28;83512;-62
2022/02/08 02:01:15;;;;;;;8.82;4.32;;;22.30;36.60;;;;;;6224428;28;82215;-62
2022/02/08 02:04:15;;;;;;;11.55;4.22;;;22.30;36.50;;;;;;6221302;28;80295;-62
2022/02/08 02:07:18;;;;;;;13.30;5.30;;;22.30;36.50;;;;;;6224109;28;82113;-62
2022/02/08 02:10:19;;;;;;;12.30;4.78;;;22.30;36.60;;;;;;6229555;28;83452;-62
2022/02/08 02:13:38;;;;;;;12.95;4.82;;;22.30;36.70;;;;;;6222692;27;81099;-62
2022/02/08 02:19:47;;;;;;;9.60;4.07;;;22.30;36.70;;;;;;6213472;27;80778;-61
2022/02/08 02:22:47;;;;;;;10.00;4.05;;;22.30;36.80;;;;;;6192824;28;82803;-62
2022/02/08 02:25:48;;;;;;;8.52;4.40;;;22.30;36.80;;;;;;6216353;28;83060;-62
2022/02/08 02:28:49;;;;;;;11.90;4.70;;;22.30;36.80;;;;;;6229522;28;83063;-62
2022/02/08 02:31:49;;;;;;;9.63;3.90;;;22.30;36.80;;;;;;6234709;28;83349;-62
2022/02/08 02:34:50;;;;;;;15.88;4.78;;;22.30;36.80;;;;;;6204061;28;83363;-62
2022/02/08 02:37:55;;;;;;;12.68;4.32;;;22.30;36.80;;;;;;6201465;28;83581;-62
2022/02/08 02:40:56;;;;;;;9.82;3.83;;;22.20;36.80;;;;;;6223598;28;83227;-62
2022/02/08 02:43:59;;;;;;;11.40;4.30;;;22.20;36.90;;;;;;6205076;28;82680;-62
2022/02/08 02:47:00;;;;;;;14.15;4.03;;;22.20;36.90;;;;;;6204426;28;83003;-63
2022/02/08 02:50:01;;;;;;;8.88;3.65;;;22.30;36.90;;;;;;6207883;28;83263;-62
2022/02/08 02:53:03;;;;;;;8.43;4.28;;;22.20;37.00;;;;;;6201624;28;82433;-62
2022/02/08 02:56:03;;;;;;;15.85;4.32;;;22.20;37.00;;;;;;6210070;28;83421;-62
2022/02/08 02:59:05;;;;;;;8.98;3.42;;;22.20;37.00;;;;;;6204320;28;83278;-61
2022/02/08 03:02:27;;;;;;;9.95;3.60;;;22.20;37.00;;;;;;6218357;28;82771;-62
2022/02/08 03:05:39;;;;;;;11.18;3.78;;;22.20;37.00;;;;;;6196320;28;82413;-62
2022/02/08 03:18:40;;;;;;;9.45;3.65;;;22.20;36.80;;;;;;6235055;27;80570;-62
2022/02/08 03:21:43;;;;;;;11.40;4.18;;;22.20;36.80;;;;;;6232177;27;82050;-62
2022/02/08 03:24:43;;;;;;;14.02;5.22;;;22.20;36.80;;;;;;6231853;27;83238;-62
2022/02/08 03:27:44;;;;;;;10.30;3.50;;;22.30;36.90;;;;;;6233869;27;80379;-63
2022/02/08 03:30:45;;;;;;;11.23;4.15;;;22.20;36.80;;;;;;6204711;28;83419;-62
2022/02/08 03:33:48;;;;;;;12.02;4.05;;;22.20;36.70;;;;;;6229995;27;81485;-62
2022/02/08 03:36:50;;;;;;;9.30;4.10;;;22.20;36.80;;;;;;6227940;27;83316;-62
2022/02/08 03:40:00;;;;;;;8.57;3.58;;;22.20;36.80;;;;;;6212990;27;81847;-62
2022/02/08 03:43:13;;;;;;;7.78;3.65;;;22.20;36.80;;;;;;6192872;28;81083;-62
2022/02/08 03:46:18;;;;;;;9.82;4.05;;;22.20;36.80;;;;;;6202538;28;82971;-62
2022/02/08 03:49:21;;;;;;;11.63;4.38;;;22.20;36.80;;;;;;6226645;28;82430;-62
2022/02/08 03:52:23;;;;;;;10.10;4.03;;;22.20;36.90;;;;;;6231353;27;80761;-61
2022/02/08 03:55:26;;;;;;;12.32;4.22;;;22.20;37.00;;;;;;6241312;27;81571;-62
2022/02/08 03:58:27;;;;;;;11.50;3.78;;;22.20;36.90;;;;;;6240933;28;83368;-62
2022/02/08 04:05:02;;;;;;;11.27;3.47;;;22.20;36.90;;;;;;6204043;28;81528;-62
2022/02/08 04:07:59;;;;;;;10.55;3.17;;;22.20;37.00;;;;;;6205583;28;80897;-62
2022/02/08 04:11:01;;;;;;;11.25;4.22;;;22.20;36.90;;;;;;6209917;28;80252;-62
2022/02/08 04:14:18;;;;;;;7.07;3.33;;;22.20;37.00;;;;;;6227500;27;80490;-62
2022/02/08 04:17:52;;;;;;;9.35;4.32;;;22.20;36.90;;;;;;6224125;27;81518;-63
2022/02/08 04:38:12;;;;;;;10.07;2.95;;;22.50;35.90;;;;;;6194205;28;80646;-64
2022/02/08 04:44:31;;;;;;;10.20;3.65;;;22.60;35.90;;;;;;6206269;28;81115;-63
2022/02/08 04:47:12;;;;;;;10.80;3.67;;;22.60;35.80;;;;;;6221267;28;80584;-62
2022/02/08 04:50:16;;;;;;;10.18;3.85;;;22.70;35.60;;;;;;6222993;28;80515;-62
2022/02/08 04:53:28;;;;;;;8.57;3.78;;;22.70;35.30;;;;;;6230045;27;80303;-62
2022/02/08 05:36:16;;;;;;;9.52;5.07;;;23.00;35.20;;;;;;6200260;27;81371;-63
2022/02/08 05:49:22;;;;;;;10.40;4.88;;;23.10;34.70;;;;;;6193424;28;80298;-64
2022/02/08 05:52:45;;;;;;;13.05;5.13;;;23.00;34.60;;;;;;6204421;28;80400;-65
2022/02/08 05:55:43;;;;;;;9.45;4.72;;;23.00;36.10;;;;;;6219286;28;81139;-64
2022/02/08 05:58:45;;;;;;;15.40;5.53;;;23.00;38.30;;;;;;6227694;28;80572;-64
2022/02/08 06:01:45;;;;;;;7.03;3.95;;;22.90;39.40;;;;;;6204096;28;80391;-65
2022/02/08 06:04:59;;;;;;;6.22;3.00;;;22.90;40.70;;;;;;6187432;28;81954;-63
2022/02/08 06:08:00;;;;;;;7.30;3.33;;;22.80;41.80;;;;;;6210650;28;83266;-62
2022/02/08 06:11:13;;;;;;;7.47;3.75;;;22.80;42.40;;;;;;6208847;27;80609;-61
2022/02/08 06:14:14;;;;;;;10.07;3.53;;;22.80;43.00;;;;;;6221387;28;81826;-62
2022/02/08 06:17:14;;;;;;;5.90;2.90;;;22.80;43.40;;;;;;6235957;28;83217;-64
2022/02/08 06:20:15;;;;;;;10.18;3.60;;;22.80;43.90;;;;;;6235752;27;80478;-63
2022/02/08 06:23:15;;;;;;;11.15;3.97;;;22.80;44.20;;;;;;6225296;28;80860;-63
2022/02/08 06:26:18;;;;;;;7.30;3.42;;;22.70;44.40;;;;;;6236849;27;80308;-64
2022/02/08 06:29:22;;;;;;;6.93;2.80;;;22.70;44.70;;;;;;6219228;27;80679;-63
2022/02/08 06:32:23;;;;;;;8.45;2.75;;;22.60;44.80;;;;;;6199868;28;80526;-64
2022/02/08 06:35:27;;;;;;;4.60;2.53;;;22.60;44.80;;;;;;6199578;28;81498;-64
2022/02/08 06:38:27;;;;;;;5.32;2.90;;;22.60;44.80;;;;;;6200454;28;81616;-64
2022/02/08 06:41:28;;;;;;;7.10;2.75;;;22.50;44.80;;;;;;6190022;28;81680;-64
2022/02/08 06:44:28;;;;;;;5.57;2.17;;;22.50;44.80;;;;;;6212040;28;81243;-63
2022/02/08 06:47:31;;;;;;;7.43;2.60;;;22.50;44.90;;;;;;6226417;28;80320;-64
2022/02/08 06:50:31;;;;;;;4.85;2.38;;;22.50;45.10;;;;;;6233755;27;80315;-64
2022/02/08 06:53:32;;;;;;;5.85;2.20;;;22.50;45.30;;;;;;6227686;27;80685;-64
2022/02/08 06:56:33;;;;;;;5.55;2.80;;;22.40;44.30;;;;;;6230843;27;80598;-64
2022/02/08 06:59:37;;;;;;;7.75;2.38;;;22.40;43.60;;;;;;6233083;27;82032;-63
2022/02/08 07:02:39;;;;;;;6.80;2.60;;;22.40;43.60;;;;;;6233442;28;82415;-63
2022/02/08 07:05:39;;;;;;;5.55;2.22;;;22.40;43.10;;;;;;6222890;27;80573;-63
2022/02/08 07:08:40;;;;;;;5.50;2.65;;;22.40;42.80;;;;;;6206318;28;81644;-63
2022/02/08 07:11:45;;;;;;;6.68;2.72;;;22.40;42.80;;;;;;6222279;28;80314;-63
2022/02/08 07:14:46;;;;;;;5.97;2.92;;;22.40;42.60;;;;;;6233761;27;81544;-62
2022/02/08 07:17:46;;;;;;;8.52;3.38;;;22.40;42.50;;;;;;6239910;27;81543;-63
2022/02/08 07:20:47;;;;;;;10.05;2.63;;;22.40;42.40;;;;;;6226717;27;80337;-64
2022/02/08 07:23:47;;;;;;;5.50;2.38;;;22.40;42.20;;;;;;6191061;28;81692;-63
2022/02/08 07:26:51;;;;;;;7.15;3.03;;;22.40;42.20;;;;;;6218346;28;80539;-63
2022/02/08 07:29:53;;;;;;;11.57;3.20;;;22.40;42.10;;;;;;6234741;27;80324;-63
2022/02/08 07:32:54;;;;;;;5.40;2.75;;;22.30;42.10;;;;;;6219896;27;80527;-63
2022/02/08 07:42:55;;;;;;;12.07;3.33;;;22.30;42.20;;;;;;6209126;28;81590;-61
2022/02/08 07:46:06;;;;;;;7.85;2.83;;;22.30;42.10;;;;;;6216725;28;83117;-60
2022/02/08 07:49:07;;;;;;;14.02;4.03;;;22.30;42.30;;;;;;6204567;28;86100;-61
2022/02/08 07:52:07;;;;;;;12.32;3.83;;;22.40;42.00;;;;;;6206986;27;82074;-63
2022/02/08 07:55:08;;;;;;;8.40;2.78;;;22.30;41.70;;;;;;6222594;27;80313;-62
2022/02/08 07:58:08;;;;;;;10.40;3.28;;;22.40;42.00;;;;;;6229845;28;80998;-61
2022/02/08 08:01:09;;;;;;;8.43;3.08;;;22.30;41.90;;;;;;6233180;27;80974;-62
2022/02/08 08:04:09;;;;;;;7.25;3.33;;;22.30;42.10;;;;;;6197347;27;80380;-62
2022/02/08 08:07:10;;;;;;;10.32;4.82;;;22.30;42.20;;;;;;6193449;28;81235;-62
2022/02/08 08:10:17;;;;;;;9.63;4.93;;;22.30;42.10;;;;;;6189557;28;80740;-61
2022/02/08 08:13:19;;;;;;;13.32;6.22;;;22.40;42.50;;;;;;6224989;28;80719;-62
2022/02/08 08:19:36;;;;;;;19.42;8.50;;;22.40;43.60;;;;;;6229810;28;80614;-62
2022/02/08 08:22:36;;;;;;;23.02;9.80;;;22.40;43.90;;;;;;6231220;27;80958;-61
2022/02/08 08:25:37;;;;;;;17.52;8.68;;;22.50;43.60;;;;;;6225121;27;80956;-62
2022/02/08 08:28:37;;;;;;;16.23;7.18;;;22.50;43.70;;;;;;6224471;28;80897;-62
2022/02/08 08:31:38;;;;;;;15.30;6.82;;;22.50;43.90;;;;;;6227685;28;82532;-62
2022/02/08 08:34:38;;;;;;;15.70;6.15;;;22.50;44.10;;;;;;6222711;28;80615;-62
2022/02/08 08:37:42;;;;;;;11.50;5.25;;;22.50;44.00;;;;;;6224200;27;81812;-63
2022/02/08 08:50:33;;;;;;;14.40;5.10;;;22.70;42.20;;;;;;6224119;27;80405;-60
2022/02/08 08:53:35;;;;;;;13.27;5.88;;;22.70;40.70;;;;;;6221307;28;81936;-62
2022/02/08 08:56:35;;;;;;;15.88;5.45;;;22.70;40.00;;;;;;6230390;27;80473;-63
2022/02/08 08:59:36;;;;;;;15.25;5.57;;;22.70;39.40;;;;;;6222898;27;80438;-60
2022/02/08 09:02:36;;;;;;;7.85;3.88;;;22.70;39.60;;;;;;6219480;28;81158;-61
2022/02/08 09:05:37;;;;;;;10.48;4.38;;;22.70;39.70;;;;;;6225186;27;80416;-61
2022/02/08 09:08:41;;;;;;;7.43;3.50;;;22.70;39.90;;;;;;6217499;27;81349;-65
2022/02/08 09:15:25;;;;;;;14.95;4.78;;;22.70;37.80;;;;;;6230910;28;88512;-62
2022/02/08 09:25:11;;;;;;;16.02;4.15;;;21.80;35.20;;;;;;6231448;28;80641;-62
2022/02/08 09:31:19;;;;;;;7.95;3.15;;;21.80;37.60;;;;;;6215733;28;80427;-62
2022/02/08 09:34:20;;;;;;;10.50;3.15;;;22.00;38.20;;;;;;6213151;27;80539;-61
2022/02/08 09:37:20;;;;;;;8.38;3.55;;;22.10;38.10;;;;;;6216364;27;81100;-60
2022/02/08 09:40:21;;;;;;;13.35;3.90;;;22.30;38.80;;;;;;6203404;28;81724;-61
2022/02/08 09:43:22;;;;;;;9.65;3.40;;;22.40;38.80;;;;;;6194675;28;81297;-62
2022/02/08 09:46:22;;;;;;;6.72;3.17;;;22.40;39.00;;;;;;6209246;28;80469;-62
2022/02/08 09:49:23;;;;;;;7.10;3.35;;;22.50;39.20;;;;;;6218312;28;84062;-60
2022/02/08 09:52:23;;;;;;;10.52;5.28;;;22.60;39.50;;;;;;6221601;27;80490;-61
2022/02/08 09:55:24;;;;;;;7.78;3.50;;;22.60;40.10;;;;;;6210864;27;80551;-61
2022/02/08 09:58:24;;;;;;;10.18;3.65;;;22.70;40.50;;;;;;6189026;28;80509;-61
2022/02/08 10:01:25;;;;;;;11.48;3.83;;;22.70;40.60;;;;;;6191923;28;80838;-60
2022/02/08 10:04:25;;;;;;;10.40;3.30;;;22.70;41.10;;;;;;6213113;28;81398;-60
2022/02/08 10:07:27;;;;;;;6.97;3.20;;;22.80;41.10;;;;;;6218607;28;80387;-60
2022/02/08 10:10:27;;;;;;;7.72;3.30;;;22.80;41.00;;;;;;6214176;28;81406;-61
2022/02/08 10:23:13;;;;;;;8.82;3.00;;;22.80;41.20;;;;;;6216367;27;81285;-61
2022/02/08 10:26:22;;;;;;;8.55;2.97;;;22.70;41.30;;;;;;6212969;28;81733;-61
2022/02/08 10:39:02;;;;;;;8.77;2.80;;;22.70;41.80;;;;;;6210558;28;80460;-61
2022/02/08 10:42:02;;;;;;;6.65;2.78;;;22.70;42.10;;;;;;6220050;28;80670;-62
2022/02/08 10:45:03;;;;;;;8.27;3.28;;;22.70;41.90;;;;;;6221548;27;82059;-60
2022/02/08 10:48:03;;;;;;;7.35;3.08;;;22.80;42.10;;;;;;6217546;28;81406;-61
2022/02/08 10:51:05;;;;;;;6.15;3.05;;;22.90;42.20;;;;;;6219103;28;87667;-60
2022/02/08 10:54:13;;;;;;;7.22;3.17;;;23.00;41.50;;;;;;6196493;28;80317;-60
2022/02/08 10:57:24;;;;;;;8.07;3.20;;;23.00;42.10;;;;;;6212053;28;81052;-60
2022/02/08 11:00:48;;;;;;;7.28;2.83;;;23.00;41.70;;;;;;6218810;28;80724;-61
2022/02/08 11:07:07;;;;;;;7.85;3.00;;;22.90;41.50;;;;;;6215474;28;80400;-60
2022/02/08 11:13:26;;;;;;;7.00;3.50;;;22.90;41.70;;;;;;6223947;28;80222;-60
2022/02/08 11:16:33;;;;;;;7.40;3.05;;;22.90;41.60;;;;;;6219883;28;81647;-60
2022/02/08 11:19:46;;;;;;;6.35;3.17;;;22.90;41.80;;;;;;6223256;27;81979;-63
2022/02/08 11:25:50;;;;;;;7.97;3.40;;;23.10;41.80;;;;;;6203674;28;82202;-61
2022/02/08 11:28:51;;;;;;;9.05;3.83;;;23.10;41.60;;;;;;6221603;27;84748;-61
2022/02/08 11:31:53;;;;;;;10.90;3.88;;;23.10;41.30;;;;;;6230057;28;81196;-61
2022/02/08 11:51:32;;;;;;;212.57;105.78;;;22.90;42.00;;;;;;6225631;28;83220;-63
2022/02/08 12:04:05;;;;;;;148.02;69.30;;;22.80;42.40;;;;;;6217746;28;83890;-60
2022/02/08 12:10:07;;;;;;;110.07;46.95;;;22.80;42.60;;;;;;6212093;28;83325;-60
2022/02/08 12:13:24;;;;;;;87.82;41.60;;;22.90;43.10;;;;;;6212232;28;83341;-61
2022/02/08 12:39:43;;;;;;;32.28;14.35;;;22.90;43.80;;;;;;6154583;28;82993;-61
2022/02/08 12:56:34;;;;;;;21.67;9.23;;;23.00;42.00;;;;;;6220010;28;82967;-62
2022/02/08 13:02:50;;;;;;;18.27;7.60;;;23.10;41.70;;;;;;6225036;28;80357;-61
2022/02/08 13:06:14;;;;;;;13.30;5.70;;;23.10;41.60;;;;;;6231218;28;83991;-61
2022/02/08 13:19:45;;;;;;;11.60;5.40;;;23.00;40.60;;;;;;6193004;28;81476;-59
2022/02/08 14:02:33;;;;;;;9.52;4.15;;;23.20;41.70;;;;;;6217816;28;81039;-60
2022/02/08 14:09:05;;;;;;;9.02;3.22;;;23.10;41.90;;;;;;6219914;27;81369;-61
2022/02/08 14:21:54;;;;;;;6.63;2.95;;;23.10;42.50;;;;;;6214176;28;80408;-60
2022/02/08 14:25:32;;;;;;;4.80;2.70;;;23.10;42.50;;;;;;6214287;28;80551;-61
2022/02/08 14:35:30;;;;;;;6.13;2.53;;;23.10;42.10;;;;;;6196556;28;81792;-62
2022/02/08 15:08:22;;;;;;;29.88;3.22;;;22.90;42.00;;;;;;6218065;27;80988;-61
2022/02/08 15:11:32;;;;;;;5.13;2.53;;;23.00;42.20;;;;;;6210786;27;80324;-61
2022/02/08 15:14:38;;;;;;;7.47;2.60;;;23.00;41.80;;;;;;6193528;28;81852;-62
2022/02/08 15:17:39;;;;;;;4.10;2.17;;;22.90;41.00;;;;;;6213698;28;80702;-61
2022/02/08 15:20:39;;;;;;;3.95;2.40;;;22.90;40.90;;;;;;6215932;28;84564;-61
2022/02/08 15:23:40;;;;;;;8.45;2.30;;;22.90;40.80;;;;;;6217325;28;80156;-61
2022/02/08 15:26:47;;;;;;;5.05;2.42;;;22.90;40.60;;;;;;6230879;27;80991;-61
2022/02/08 15:29:53;;;;;;;7.28;2.70;;;22.90;40.50;;;;;;6227952;27;80855;-61
2022/02/08 15:32:54;;;;;;;7.55;3.30;;;22.90;40.50;;;;;;6221693;28;80825;-59
2022/02/08 15:35:54;;;;;;;6.32;2.80;;;22.90;40.50;;;;;;6225605;27;80552;-59
2022/02/08 15:38:58;;;;;;;5.32;2.65;;;22.90;40.60;;;;;;6218496;27;80587;-60
2022/02/08 15:41:58;;;;;;;5.50;2.95;;;22.90;40.60;;;;;;6201510;28;80663;-60
2022/02/08 15:45:04;;;;;;;7.88;3.20;;;23.00;41.10;;;;;;6215775;28;81287;-59
2022/02/08 15:48:09;;;;;;;12.52;3.45;;;23.00;40.30;;;;;;6236094;27;80919;-61
2022/02/08 15:54:39;;;;;;;7.30;3.22;;;23.00;40.20;;;;;;6227283;27;80906;-62
2022/02/08 16:07:20;;;;;;;8.27;3.47;;;23.00;40.00;;;;;;6222359;27;80684;-60
2022/02/08 16:10:54;;;;;;;8.82;3.70;;;23.00;39.80;;;;;;6234553;28;80582;-61
2022/02/08 16:13:56;;;;;;;8.30;3.38;;;23.00;40.00;;;;;;6218866;28;80604;-60
2022/02/08 16:20:10;;;;;;;6.47;3.45;;;23.00;40.70;;;;;;6224315;28;80330;-60
2022/02/08 16:58:46;;;;;;;10.85;4.03;;;22.90;40.40;;;;;;6217240;27;81160;-60
2022/02/08 17:01:47;;;;;;;6.30;3.38;;;22.90;40.30;;;;;;6215047;27;80776;-61
2022/02/08 17:04:47;;;;;;;7.57;3.88;;;23.00;40.20;;;;;;6218047;28;80558;-59
2022/02/08 17:07:48;;;;;;;6.90;3.90;;;23.00;40.10;;;;;;6219199;27;80615;-60
2022/02/08 17:10:51;;;;;;;6.57;3.30;;;23.00;40.10;;;;;;6215713;28;80415;-60
2022/02/08 17:14:22;;;;;;;8.93;4.05;;;23.00;39.90;;;;;;6227990;28;83665;-60
2022/02/08 17:50:30;;;;;;;31.48;15.45;;;23.00;41.50;;;;;;6221403;28;80256;-63
2022/02/08 17:53:30;;;;;;;97.05;49.20;;;23.00;41.70;;;;;;6213669;28;82750;-63
2022/02/08 17:56:31;;;;;;;177.68;88.57;;;23.10;41.80;;;;;;6238900;27;82801;-65
2022/02/08 17:59:32;;;;;;;164.95;77.50;;;23.10;41.70;;;;;;6226001;27;83107;-64
2022/02/08 18:02:33;;;;;;;134.05;66.15;;;23.10;41.80;;;;;;6227888;27;82996;-65
2022/02/08 18:05:34;;;;;;;115.97;54.55;;;23.00;41.60;;;;;;6225009;27;83428;-64
2022/02/08 18:08:35;;;;;;;95.57;46.67;;;23.00;42.00;;;;;;6230248;27;86552;-65
2022/02/08 18:11:41;;;;;;;103.28;44.95;;;23.00;42.40;;;;;;6228519;27;83220;-63
2022/02/08 18:14:47;;;;;;;83.00;40.00;;;23.00;42.50;;;;;;6225041;27;83649;-63
2022/02/08 18:17:52;;;;;;;67.35;33.67;;;23.00;42.80;;;;;;6217999;28;83108;-64
2022/02/08 18:20:58;;;;;;;68.28;31.88;;;23.00;42.70;;;;;;6225372;28;85923;-63
2022/02/08 18:52:03;;;;;;;29.90;15.15;;;23.00;43.50;;;;;;6216154;28;83380;-67
2022/02/08 19:13:54;;;;;;;24.70;11.52;;;23.00;44.10;;;;;;6228981;27;83155;-67
2022/02/08 19:20:10;;;;;;;17.55;8.88;;;23.00;43.70;;;;;;6207038;28;87675;-66
2022/02/08 19:23:10;;;;;;;23.00;8.68;;;23.00;43.50;;;;;;6231778;27;81166;-64
2022/02/08 19:26:12;;;;;;;22.17;8.75;;;23.00;43.70;;;;;;6225618;28;80376;-65
2022/02/08 19:29:14;;;;;;;16.92;8.90;;;23.00;43.60;;;;;;6202659;27;80643;-66
2022/02/08 19:32:15;;;;;;;13.93;7.80;;;23.00;43.20;;;;;;6205857;27;81449;-65
2022/02/08 19:35:15;;;;;;;12.82;6.80;;;23.00;43.20;;;;;;6204501;28;80542;-64
2022/02/08 19:38:18;;;;;;;11.30;7.05;;;23.00;42.80;;;;;;6204405;28;80413;-66
2022/02/08 19:41:18;;;;;;;13.98;6.97;;;23.00;43.00;;;;;;6220717;28;80483;-63
2022/02/08 19:44:19;;;;;;;11.43;6.43;;;22.90;42.50;;;;;;6221572;28;81649;-63
2022/02/08 19:47:19;;;;;;;11.30;6.25;;;22.90;42.40;;;;;;6224033;27;80935;-63
2022/02/08 19:50:20;;;;;;;12.00;6.28;;;22.90;42.30;;;;;;6228840;28;81772;-64
2022/02/08 19:53:20;;;;;;;12.43;6.45;;;22.90;42.30;;;;;;6226098;28;80734;-64
2022/02/08 19:56:28;;;;;;;10.95;6.38;;;22.90;42.20;;;;;;6225397;27;80708;-64
2022/02/08 19:59:34;;;;;;;12.02;5.35;;;22.90;42.10;;;;;;6222162;27;80185;-63
2022/02/08 20:02:42;;;;;;;10.52;6.20;;;22.90;42.10;;;;;;6221509;27;82015;-64
2022/02/08 20:05:45;;;;;;;11.15;5.80;;;22.90;42.10;;;;;;6220382;28;80701;-65
2022/02/08 20:08:45;;;;;;;9.45;5.55;;;22.90;42.00;;;;;;6214403;27;80402;-63
2022/02/08 20:11:47;;;;;;;9.02;5.47;;;22.90;42.00;;;;;;6220105;28;81537;-67
2022/02/08 20:14:48;;;;;;;9.40;5.60;;;22.90;42.00;;;;;;6219595;28;82586;-64
2022/02/08 20:17:50;;;;;;;8.60;5.53;;;22.90;41.90;;;;;;6232602;27;80210;-64
2022/02/08 20:20:51;;;;;;;10.38;5.57;;;22.90;41.90;;;;;;6234181;27;81357;-64
2022/02/08 20:23:53;;;;;;;8.77;5.30;;;22.90;41.80;;;;;;6224144;27;83564;-64
2022/02/08 20:30:00;;;;;;;7.32;4.68;;;22.90;41.80;;;;;;6217384;27;81352;-63
2022/02/08 20:33:00;;;;;;;9.15;5.40;;;22.90;41.80;;;;;;6217912;27;82133;-63
2022/02/08 20:36:01;;;;;;;8.55;4.88;;;22.90;41.80;;;;;;6221067;27;80041;-64
2022/02/08 20:39:01;;;;;;;8.48;5.38;;;22.90;41.80;;;;;;6217841;28;80940;-64
2022/02/08 20:42:03;;;;;;;8.25;4.93;;;22.80;42.00;;;;;;6217043;28;80661;-63
2022/02/08 20:45:04;;;;;;;8.18;4.32;;;22.80;42.40;;;;;;6217018;27;80559;-63
2022/02/08 20:48:05;;;;;;;6.97;4.78;;;22.80;42.40;;;;;;6224623;28;81613;-64
2022/02/08 20:51:05;;;;;;;6.78;4.47;;;22.80;42.60;;;;;;6219600;28;80472;-64
2022/02/08 20:54:07;;;;;;;6.85;4.35;;;22.80;43.30;;;;;;6219124;27;80790;-66
2022/02/08 20:57:21;;;;;;;7.93;4.57;;;22.80;43.90;;;;;;6218167;28;82194;-65
2022/02/08 21:00:21;;;;;;;13.02;4.63;;;22.80;44.50;;;;;;6225299;27;80227;-65
2022/02/08 21:03:28;;;;;;;5.22;4.07;;;22.80;44.40;;;;;;6232588;27;81235;-63
2022/02/08 21:06:29;;;;;;;6.30;4.25;;;22.80;44.80;;;;;;6242878;27;80386;-64
2022/02/08 21:09:29;;;;;;;6.95;3.97;;;22.80;45.00;;;;;;6209026;28;87072;-64
2022/02/08 21:12:41;;;;;;;11.95;3.92;;;22.80;45.20;;;;;;6206405;28;80356;-63
2022/02/08 21:15:42;;;;;;;8.32;4.30;;;22.80;45.10;;;;;;6199408;28;80854;-62
2022/02/08 21:18:43;;;;;;;6.72;4.00;;;22.80;45.10;;;;;;6202389;28;80644;-63
2022/02/08 21:21:43;;;;;;;5.50;3.80;;;22.80;45.20;;;;;;6203440;28;80298;-63
2022/02/08 21:24:44;;;;;;;6.63;3.45;;;22.80;45.30;;;;;;6191003;28;81786;-63
2022/02/08 21:27:56;;;;;;;5.55;3.70;;;22.80;45.30;;;;;;6203313;28;83011;-63
2022/02/08 21:44:21;;;;;;;5.47;3.40;;;22.70;45.80;;;;;;6228378;28;84569;-64
2022/02/08 21:47:48;;;;;;;5.25;3.55;;;22.70;46.30;;;;;;6220800;28;80405;-66
2022/02/08 21:53:59;;;;;;;4.55;3.30;;;22.70;45.80;;;;;;6218303;28;80429;-66
2022/02/08 21:57:00;;;;;;;6.82;3.28;;;22.70;45.80;;;;;;6224999;27;80309;-66
2022/02/08 22:00:00;;;;;;;6.32;3.72;;;22.70;45.90;;;;;;6217654;28;80628;-65
2022/02/08 22:03:01;;;;;;;5.72;3.80;;;22.70;45.70;;;;;;6231810;27;83922;-66
2022/02/08 22:06:04;;;;;;;8.02;3.70;;;22.60;45.60;;;;;;6231868;27;80432;-66
2022/02/08 22:09:09;;;;;;;4.30;2.85;;;22.60;45.50;;;;;;6229703;27;80463;-65
2022/02/08 22:22:02;;;;;;;4.78;3.63;;;22.50;45.50;;;;;;6217451;28;81061;-66
2022/02/08 22:31:48;;;;;;;4.97;3.10;;;22.50;45.60;;;;;;6229229;28;81044;-65
2022/02/08 22:34:57;;;;;;;4.07;2.78;;;22.50;45.70;;;;;;6224016;28;81105;-65
2022/02/08 22:38:08;;;;;;;4.55;2.97;;;22.50;45.70;;;;;;6198308;28;85567;-64
2022/02/08 22:41:15;;;;;;;4.05;2.80;;;22.50;45.70;;;;;;6229324;28;81200;-65
2022/02/08 22:47:23;;;;;;;5.68;3.30;;;22.40;45.70;;;;;;6213613;27;80792;-65
2022/02/08 22:50:23;;;;;;;5.65;3.50;;;22.40;45.70;;;;;;6200270;28;81136;-65
2022/02/08 22:53:24;;;;;;;4.97;3.47;;;22.40;45.60;;;;;;6228511;27;80572;-66
2022/02/08 22:56:28;;;;;;;7.45;3.47;;;22.40;45.60;;;;;;6224651;28;82954;-65
2022/02/08 22:59:28;;;;;;;4.75;3.50;;;22.40;46.10;;;;;;6217145;28;80639;-65
2022/02/08 23:02:29;;;;;;;4.97;3.10;;;22.40;45.40;;;;;;6224702;27;81703;-65
2022/02/08 23:05:30;;;;;;;5.15;2.88;;;22.40;45.40;;;;;;6240671;27;85935;-65
2022/02/08 23:08:31;;;;;;;6.28;3.00;;;22.40;45.50;;;;;;6227319;27;80909;-64
2022/02/08 23:12:38;;;;;;;4.28;2.88;;;22.40;45.40;;;;;;6193701;28;80984;-64
2022/02/08 23:38:04;;;;;;;4.70;2.90;;;22.40;45.50;;;;;;6196873;28;83684;-65
2022/02/08 23:41:04;;;;;;;5.97;3.30;;;22.40;45.50;;;;;;6218668;28;80387;-64
2022/02/08 23:44:05;;;;;;;4.93;2.92;;;22.30;45.30;;;;;;6227979;27;80442;-65
2022/02/08 23:47:08;;;;;;;5.00;3.35;;;22.30;45.40;;;;;;6234901;28;80552;-65
2022/02/08 23:50:08;;;;;;;7.25;3.38;;;22.30;45.40;;;;;;6233192;27;81409;-64
2022/02/08 23:53:21;;;;;;;4.38;2.92;;;22.40;45.40;;;;;;6229183;27;80485;-64
2022/02/08 23:56:30;;;;;;;4.78;3.45;;;22.40;45.30;;;;;;6225451;28;80496;-65
2022/02/08 23:59:44;;;;;;;5.07;3.17;;;22.30;45.30;;;;;;6223224;28;80279;-65
